createdAt,value
2022-10-29T00:00:53.656Z,11.27
2022-10-29T00:03:21.683Z,11.10
2022-10-29T00:06:03.057Z,11.57
2022-10-29T00:08:31.823Z,11.57
2022-10-29T00:11:19.500Z,11.68
2022-10-29T00:13:48.140Z,11.93
2022-10-29T00:16:17.656Z,11.43
2022-10-29T00:18:44.767Z,11.55
2022-10-29T00:21:18.172Z,11.50
2022-10-29T00:23:45.458Z,12.55
2022-10-29T00:26:13.707Z,12.57
2022-10-29T00:28:41.407Z,12.30
2022-10-29T00:31:12.477Z,11.77
2022-10-29T00:33:39.777Z,11.27
2022-10-29T00:36:12.868Z,12.23
2022-10-29T00:38:39.865Z,11.70
2022-10-29T00:41:08.608Z,11.80
2022-10-29T00:43:37.360Z,11.57
2022-10-29T00:46:16.154Z,12.30
2022-10-29T00:48:48.660Z,12.57
2022-10-29T00:51:16.766Z,12.38
2022-10-29T00:53:53.637Z,12.40
2022-10-29T00:56:22.139Z,11.38
2022-10-29T00:58:49.388Z,10.85
2022-10-29T01:01:16.681Z,11.98
2022-10-29T01:03:43.918Z,11.73
2022-10-29T01:06:10.906Z,11.35
2022-10-29T01:08:37.937Z,11.48
2022-10-29T01:11:32.327Z,11.85
2022-10-29T01:14:23.970Z,11.85
2022-10-29T01:17:17.662Z,11.35
2022-10-29T01:20:03.698Z,11.43
2022-10-29T01:22:46.027Z,12.23
2022-10-29T01:25:34.547Z,12.23
2022-10-29T01:28:16.558Z,12.15
2022-10-29T01:30:58.296Z,11.73
2022-10-29T01:33:40.574Z,10.50
2022-10-29T01:36:33.933Z,10.38
2022-10-29T01:39:00.967Z,11.02
2022-10-29T01:41:42.166Z,10.88
2022-10-29T01:44:20.189Z,11.23
2022-10-29T01:46:53.922Z,11.20
2022-10-29T01:49:44.569Z,11.30
2022-10-29T01:52:15.292Z,11.25
2022-10-29T01:54:43.548Z,11.13
2022-10-29T01:57:25.768Z,10.43
2022-10-29T01:59:56.070Z,11.48
2022-10-29T02:02:48.369Z,10.98
2022-10-29T02:05:32.032Z,11.90
2022-10-29T02:08:11.050Z,12.05
2022-10-29T02:10:53.126Z,11.45
2022-10-29T02:13:24.506Z,11.48
2022-10-29T02:15:54.453Z,11.10
2022-10-29T02:18:22.229Z,11.02
2022-10-29T02:20:49.247Z,12.63
2022-10-29T02:23:17.636Z,11.85
2022-10-29T02:25:44.701Z,11.73
2022-10-29T02:28:11.923Z,12.55
2022-10-29T02:30:38.993Z,12.38
2022-10-29T02:33:05.946Z,13.02
2022-10-29T02:35:32.966Z,12.60
2022-10-29T02:37:59.916Z,13.23
2022-10-29T02:40:27.107Z,12.45
2022-10-29T02:42:54.967Z,12.32
2022-10-29T02:45:22.273Z,12.15
2022-10-29T02:47:49.248Z,12.48
2022-10-29T02:50:16.307Z,12.40
2022-10-29T02:52:43.266Z,12.60
2022-10-29T02:55:10.510Z,12.82
2022-10-29T02:57:38.878Z,12.00
2022-10-29T03:00:06.738Z,11.50
2022-10-29T03:02:33.846Z,12.05
2022-10-29T03:05:00.932Z,12.25
2022-10-29T03:07:27.912Z,12.52
2022-10-29T03:09:54.928Z,12.38
2022-10-29T03:12:21.889Z,12.02
2022-10-29T03:14:48.917Z,12.95
2022-10-29T03:17:15.925Z,11.48
2022-10-29T03:19:42.907Z,12.38
2022-10-29T03:22:10.057Z,11.93
2022-10-29T03:24:37.032Z,11.55
2022-10-29T03:27:04.158Z,12.13
2022-10-29T03:29:31.246Z,11.48
2022-10-29T03:31:58.263Z,11.95
2022-10-29T03:34:25.583Z,12.65
2022-10-29T03:36:52.526Z,13.25
2022-10-29T03:39:19.602Z,12.20
2022-10-29T03:41:46.602Z,11.80
2022-10-29T03:44:13.558Z,11.13
2022-10-29T03:46:40.492Z,11.50
2022-10-29T03:49:07.408Z,12.25
2022-10-29T03:51:34.602Z,13.20
2022-10-29T03:54:02.550Z,12.25
2022-10-29T03:56:31.239Z,11.98
2022-10-29T03:58:58.433Z,11.50
2022-10-29T04:01:25.755Z,12.48
2022-10-29T04:03:53.322Z,11.88
2022-10-29T04:06:20.277Z,11.15
2022-10-29T04:08:47.243Z,11.80
2022-10-29T04:11:14.983Z,12.65
2022-10-29T04:13:42.154Z,12.65
2022-10-29T04:16:09.662Z,12.80
2022-10-29T04:18:36.776Z,12.18
2022-10-29T04:29:25.548Z,12.02
2022-10-29T04:31:52.568Z,12.65
2022-10-29T04:34:19.546Z,11.65
2022-10-29T04:36:46.501Z,12.95
2022-10-29T04:39:13.483Z,12.27
2022-10-29T04:41:40.517Z,12.18
2022-10-29T04:44:07.506Z,13.18
2022-10-29T04:46:34.467Z,13.25
2022-10-29T04:49:02.993Z,13.30
2022-10-29T04:51:29.987Z,13.20
2022-10-29T04:53:56.912Z,14.18
2022-10-29T04:56:24.027Z,12.55
2022-10-29T04:58:52.707Z,13.40
2022-10-29T05:01:20.033Z,13.25
2022-10-29T05:03:47.208Z,14.45
2022-10-29T05:06:14.191Z,14.43
2022-10-29T05:08:41.276Z,13.93
2022-10-29T05:11:08.487Z,14.20
2022-10-29T05:13:35.648Z,14.07
2022-10-29T05:16:03.038Z,13.30
2022-10-29T05:18:30.152Z,14.05
2022-10-29T05:20:57.547Z,14.10
2022-10-29T05:23:24.784Z,14.98
2022-10-29T05:25:52.686Z,14.98
2022-10-29T05:28:21.991Z,14.05
2022-10-29T05:30:52.259Z,14.43
2022-10-29T05:33:21.368Z,14.88
2022-10-29T05:35:48.636Z,14.38
2022-10-29T05:38:17.003Z,15.20
2022-10-29T05:40:45.347Z,14.27
2022-10-29T05:43:16.949Z,14.65
2022-10-29T05:45:44.283Z,13.98
2022-10-29T05:50:44.171Z,14.48
2022-10-29T05:53:13.567Z,14.98
2022-10-29T05:55:41.160Z,15.88
2022-10-29T05:58:11.842Z,15.57
2022-10-29T06:00:40.897Z,14.77
2022-10-29T06:03:16.877Z,15.65
2022-10-29T06:05:44.327Z,15.15
2022-10-29T06:08:11.284Z,16.27
2022-10-29T06:10:38.392Z,16.17
2022-10-29T06:13:18.105Z,16.23
2022-10-29T06:15:46.331Z,17.52
2022-10-29T06:18:13.402Z,16.42
2022-10-29T06:20:40.730Z,15.13
2022-10-29T06:23:07.893Z,14.88
2022-10-29T06:25:37.909Z,13.57
2022-10-29T06:28:10.242Z,15.32
2022-10-29T06:30:37.774Z,16.85
2022-10-29T06:33:05.685Z,16.65
2022-10-29T06:38:10.864Z,16.10
2022-10-29T06:40:39.877Z,16.50
2022-10-29T06:43:12.452Z,16.42
2022-10-29T06:45:39.832Z,16.67
2022-10-29T06:48:07.543Z,16.65
2022-10-29T06:50:34.681Z,15.93
2022-10-29T06:53:06.671Z,16.60
2022-10-29T06:55:34.879Z,15.45
2022-10-29T06:58:01.892Z,15.45
2022-10-29T07:00:30.334Z,15.95
2022-10-29T07:02:58.083Z,15.30
2022-10-29T07:05:26.562Z,15.35
2022-10-29T07:07:58.016Z,16.80
2022-10-29T07:10:27.527Z,16.77
2022-10-29T07:12:54.506Z,16.20
2022-10-29T07:15:25.661Z,19.25
2022-10-29T07:17:56.834Z,17.77
2022-10-29T07:20:24.413Z,17.58
2022-10-29T07:22:51.390Z,17.23
2022-10-29T07:25:18.948Z,19.45
2022-10-29T07:27:46.328Z,17.80
2022-10-29T07:30:13.768Z,17.02
2022-10-29T07:32:40.763Z,17.38
2022-10-29T07:35:08.283Z,17.35
2022-10-29T07:37:35.422Z,16.25
2022-10-29T07:40:02.433Z,17.10
2022-10-29T07:42:29.457Z,18.92
2022-10-29T07:44:56.617Z,16.80
2022-10-29T07:47:23.572Z,15.93
2022-10-29T07:49:50.577Z,16.73
2022-10-29T07:52:17.588Z,16.55
2022-10-29T07:54:44.537Z,15.05
2022-10-29T07:57:11.564Z,16.08
2022-10-29T07:59:38.539Z,17.50
2022-10-29T08:02:06.100Z,15.27
2022-10-29T08:04:33.197Z,15.23
2022-10-29T08:07:00.100Z,14.73
2022-10-29T08:09:27.043Z,16.05
2022-10-29T08:11:54.012Z,16.48
2022-10-29T08:14:22.795Z,15.45
2022-10-29T08:16:49.977Z,14.93
2022-10-29T08:19:16.970Z,13.63
2022-10-29T08:21:43.882Z,13.43
2022-10-29T08:24:11.238Z,14.05
2022-10-29T08:26:38.247Z,14.65
2022-10-29T08:29:05.287Z,15.57
2022-10-29T08:31:32.187Z,15.50
2022-10-29T08:33:59.317Z,16.90
2022-10-29T08:36:26.328Z,16.67
2022-10-29T08:38:53.277Z,13.98
2022-10-29T08:41:28.814Z,15.35
2022-10-29T08:46:53.102Z,14.30
2022-10-29T08:49:55.267Z,15.88
2022-10-29T08:52:27.742Z,15.07
2022-10-29T08:55:05.502Z,14.38
2022-10-29T08:57:37.201Z,16.35
2022-10-29T09:00:13.593Z,16.90
2022-10-29T09:02:40.852Z,16.60
2022-10-29T09:05:17.210Z,16.13
2022-10-29T09:08:07.067Z,14.30
2022-10-29T09:10:56.396Z,14.60
2022-10-29T09:13:39.082Z,15.60
2022-10-29T09:16:28.942Z,14.25
2022-10-29T09:19:14.933Z,14.27
2022-10-29T09:24:29.268Z,13.73
2022-10-29T09:27:14.259Z,18.25
2022-10-29T09:29:59.037Z,17.47
2022-10-29T09:33:01.877Z,17.38
2022-10-29T09:35:46.012Z,15.40
2022-10-29T09:38:24.206Z,17.15
2022-10-29T09:40:51.447Z,15.65
2022-10-29T09:43:36.191Z,17.27
2022-10-29T09:46:33.936Z,16.55
2022-10-29T09:49:03.956Z,16.83
2022-10-29T09:51:48.875Z,16.25
2022-10-29T09:54:16.713Z,17.73
2022-10-29T09:56:47.755Z,19.15
2022-10-29T09:59:28.417Z,17.80
2022-10-29T10:01:55.760Z,16.60
2022-10-29T10:04:37.701Z,19.38
2022-10-29T10:07:16.555Z,18.30
2022-10-29T10:10:02.022Z,18.23
2022-10-29T10:12:37.997Z,20.23
2022-10-29T10:15:13.643Z,18.17
2022-10-29T10:18:00.843Z,18.67
2022-10-29T10:20:35.593Z,21.23
2022-10-29T10:23:19.707Z,19.35
2022-10-29T10:25:46.871Z,22.17
2022-10-29T10:28:31.968Z,19.38
2022-10-29T10:31:04.697Z,21.65
2022-10-29T10:33:34.268Z,22.85
2022-10-29T10:36:07.120Z,19.65
2022-10-29T10:38:55.508Z,21.63
2022-10-29T10:41:30.077Z,19.35
2022-10-29T10:44:03.542Z,20.90
2022-10-29T10:46:35.279Z,20.08
2022-10-29T10:49:26.897Z,19.85
2022-10-29T10:51:55.575Z,19.98
2022-10-29T10:54:42.051Z,19.20
2022-10-29T10:57:11.971Z,20.40
2022-10-29T11:00:06.668Z,20.77
2022-10-29T11:03:13.594Z,21.05
2022-10-29T11:06:03.787Z,20.42
2022-10-29T11:08:41.147Z,23.65
2022-10-29T11:11:32.002Z,22.75
2022-10-29T11:14:06.335Z,25.20
2022-10-29T11:16:57.642Z,22.92
2022-10-29T11:19:43.193Z,22.02
2022-10-29T11:22:17.907Z,23.65
2022-10-29T11:25:31.537Z,26.45
2022-10-29T11:28:39.337Z,25.20
2022-10-29T11:31:43.287Z,23.67
2022-10-29T11:34:27.072Z,24.25
2022-10-29T11:37:22.713Z,25.02
2022-10-29T11:39:53.792Z,27.35
2022-10-29T11:42:21.191Z,25.70
2022-10-29T11:44:48.356Z,27.60
2022-10-29T11:47:30.106Z,24.85
2022-10-29T11:50:11.498Z,24.52
2022-10-29T11:52:54.979Z,26.75
2022-10-29T11:55:38.277Z,27.98
2022-10-29T11:58:39.594Z,24.80
2022-10-29T12:01:32.511Z,24.80
2022-10-29T12:04:24.267Z,25.80
2022-10-29T12:06:56.618Z,26.25
2022-10-29T12:09:29.338Z,25.50
2022-10-29T12:12:20.837Z,23.90
2022-10-29T12:15:09.472Z,20.88
2022-10-29T12:17:49.389Z,23.88
2022-10-29T12:20:32.407Z,22.55
2022-10-29T12:23:15.117Z,23.58
2022-10-29T12:26:20.892Z,21.80
2022-10-29T12:28:59.987Z,24.73
2022-10-29T12:32:04.468Z,20.00
2022-10-29T12:35:03.662Z,22.33
2022-10-29T12:37:53.788Z,18.60
2022-10-29T12:40:28.603Z,20.55
2022-10-29T12:42:56.633Z,21.70
2022-10-29T12:46:18.957Z,22.85
2022-10-29T12:49:20.683Z,23.30
2022-10-29T12:52:11.873Z,19.65
2022-10-29T12:54:45.138Z,21.85
2022-10-29T12:57:14.989Z,18.08
2022-10-29T12:59:43.622Z,22.08
2022-10-29T13:02:27.471Z,20.90
2022-10-29T13:05:06.917Z,20.17
2022-10-29T13:07:34.810Z,21.58
2022-10-29T13:10:28.719Z,20.75
2022-10-29T13:12:55.694Z,17.23
2022-10-29T13:15:32.296Z,16.73
2022-10-29T13:18:23.893Z,15.50
2022-10-29T13:20:53.407Z,17.33
2022-10-29T13:23:23.170Z,17.58
2022-10-29T13:25:53.030Z,17.88
2022-10-29T13:28:19.912Z,16.02
2022-10-29T13:31:00.279Z,15.38
2022-10-29T13:33:27.183Z,15.05
2022-10-29T13:35:55.466Z,14.13
2022-10-29T13:38:57.765Z,14.73
2022-10-29T13:41:44.117Z,13.23
2022-10-29T13:44:25.360Z,14.10
2022-10-29T13:47:19.957Z,13.15
2022-10-29T13:49:49.069Z,13.88
2022-10-29T13:52:19.247Z,12.98
2022-10-29T13:54:58.608Z,11.45
2022-10-29T13:58:02.003Z,10.57
2022-10-29T14:00:32.193Z,11.98
2022-10-29T14:03:23.794Z,11.98
2022-10-29T14:05:56.761Z,11.00
2022-10-29T14:08:39.047Z,11.38
2022-10-29T14:11:17.971Z,11.70
2022-10-29T14:13:49.452Z,10.55
2022-10-29T14:16:20.639Z,11.15
2022-10-29T14:18:49.467Z,11.00
2022-10-29T14:21:21.792Z,12.00
2022-10-29T14:23:59.969Z,11.10
2022-10-29T14:26:29.208Z,11.45
2022-10-29T14:28:56.492Z,10.93
2022-10-29T14:31:25.147Z,10.90
2022-10-29T14:34:00.251Z,9.95
2022-10-29T14:36:46.395Z,9.98
2022-10-29T14:39:48.302Z,9.60
2022-10-29T14:42:45.339Z,9.35
